MAS2274 WMKK-WBKK
Flight info
| Callsign | MAS2274 |
|---|---|
| Flight time | N/A |
| Altitude | 41000 |
| Route | KIMAT2D KIMAT Y344 VPK M758 VIDIP EGENU2B |
| Aircraft | A333/H-SDE3GHIJ2J3J5M1RVWXY/LB2D1 |
Departure
| Time | 2026-05-01 13:46 |
|---|---|
| Airport | Kuala Lumpur International Airport (WMKK) |
Arrival
| Time | N/A |
|---|---|
| Airport | Kota Kinabalu International Airport (WBKK) |
| Time | Latitude | Longitude | Altitude | Speed | Heading |
|---|---|---|---|---|---|
| 2026-05-01 13:13 | 2.75009 | 101.71293 | 77 ft | 0 kts | 236° |
| 2026-05-01 13:35 | 2.75012 | 101.71298 | 77 ft | 2 kts | 235° |
| 2026-05-01 13:36 | 2.75021 | 101.71312 | 66 ft | 2 kts | 238° |
| 2026-05-01 13:36 | 2.75030 | 101.71326 | 68 ft | 2 kts | 240° |
| 2026-05-01 13:36 | 2.75043 | 101.71355 | 68 ft | 2 kts | 257° |
| 2026-05-01 13:37 | 2.75044 | 101.71371 | 66 ft | 2 kts | 298° |
| 2026-05-01 13:37 | 2.75036 | 101.71381 | 66 ft | 1 kts | 323° |
| 2026-05-01 13:37 | 2.75035 | 101.71382 | 66 ft | 0 kts | 324° |
| 2026-05-01 13:39 | 2.75044 | 101.71376 | 67 ft | 3 kts | 324° |
| 2026-05-01 13:39 | 2.75071 | 101.71357 | 67 ft | 6 kts | 326° |
| 2026-05-01 13:39 | 2.75111 | 101.71330 | 66 ft | 8 kts | 326° |
| 2026-05-01 13:39 | 2.75165 | 101.71294 | 68 ft | 11 kts | 326° |
| 2026-05-01 13:40 | 2.75230 | 101.71269 | 70 ft | 8 kts | 5° |
| 2026-05-01 13:40 | 2.75273 | 101.71296 | 66 ft | 7 kts | 46° |
| 2026-05-01 13:40 | 2.75303 | 101.71337 | 66 ft | 8 kts | 53° |
| 2026-05-01 13:40 | 2.75339 | 101.71388 | 68 ft | 10 kts | 56° |
| 2026-05-01 13:41 | 2.75382 | 101.71452 | 65 ft | 12 kts | 57° |
| 2026-05-01 13:41 | 2.75429 | 101.71530 | 69 ft | 12 kts | 69° |
| 2026-05-01 13:41 | 2.75418 | 101.71576 | 72 ft | 6 kts | 126° |
| 2026-05-01 13:41 | 2.75388 | 101.71607 | 64 ft | 6 kts | 140° |
| 2026-05-01 13:42 | 2.75349 | 101.71634 | 68 ft | 8 kts | 148° |
| 2026-05-01 13:42 | 2.75300 | 101.71666 | 65 ft | 9 kts | 147° |
| 2026-05-01 13:42 | 2.75242 | 101.71704 | 71 ft | 11 kts | 147° |
| 2026-05-01 13:42 | 2.75177 | 101.71747 | 65 ft | 12 kts | 146° |
| 2026-05-01 13:43 | 2.75102 | 101.71798 | 66 ft | 14 kts | 146° |
| 2026-05-01 13:43 | 2.75024 | 101.71855 | 67 ft | 12 kts | 135° |
| 2026-05-01 13:43 | 2.74971 | 101.71890 | 86 ft | 9 kts | 149° |
| 2026-05-01 13:43 | 2.74915 | 101.71925 | 87 ft | 10 kts | 148° |
| 2026-05-01 13:44 | 2.74849 | 101.71968 | 86 ft | 13 kts | 147° |
| 2026-05-01 13:44 | 2.74774 | 101.72022 | 87 ft | 12 kts | 134° |
| 2026-05-01 13:44 | 2.74763 | 101.72067 | 83 ft | 5 kts | 82° |
| 2026-05-01 13:44 | 2.74780 | 101.72106 | 87 ft | 8 kts | 60° |
| 2026-05-01 13:45 | 2.74820 | 101.72160 | 87 ft | 10 kts | 45° |
| 2026-05-01 13:45 | 2.74865 | 101.72173 | 85 ft | 6 kts | 359° |
| 2026-05-01 13:45 | 2.74912 | 101.72154 | 86 ft | 10 kts | 328° |
| 2026-05-01 13:45 | 2.75110 | 101.72025 | 85 ft | 66 kts | 326° |
| 2026-05-01 13:46 | 2.75668 | 101.71651 | 70 ft | 124 kts | 326° |
| 2026-05-01 13:46 | 2.76531 | 101.71083 | 123 ft | 168 kts | 328° |
| 2026-05-01 13:46 | 2.77519 | 101.70431 | 717 ft | 170 kts | 327° |
| 2026-05-01 13:46 | 2.78497 | 101.69766 | 1365 ft | 171 kts | 327° |
| 2026-05-01 13:47 | 2.79543 | 101.69104 | 1798 ft | 188 kts | 334° |
| 2026-05-01 13:47 | 2.80829 | 101.68566 | 2013 ft | 214 kts | 341° |
| 2026-05-01 13:47 | 2.82334 | 101.68033 | 2191 ft | 245 kts | 342° |
| 2026-05-01 13:47 | 2.84007 | 101.67449 | 2622 ft | 262 kts | 341° |
| 2026-05-01 13:48 | 2.85757 | 101.66829 | 3272 ft | 270 kts | 341° |
| 2026-05-01 13:48 | 2.87536 | 101.66192 | 4040 ft | 273 kts | 341° |
| 2026-05-01 13:48 | 2.89341 | 101.65571 | 4623 ft | 274 kts | 346° |
| 2026-05-01 13:48 | 2.91223 | 101.65331 | 5183 ft | 275 kts | 2° |
| 2026-05-01 13:49 | 2.93123 | 101.65542 | 6022 ft | 276 kts | 15° |
| 2026-05-01 13:49 | 2.94879 | 101.66295 | 6823 ft | 276 kts | 37° |
| 2026-05-01 13:49 | 2.96139 | 101.67717 | 7642 ft | 276 kts | 64° |
| 2026-05-01 13:49 | 2.96844 | 101.69507 | 8480 ft | 278 kts | 72° |
| 2026-05-01 13:50 | 2.97409 | 101.71366 | 9345 ft | 281 kts | 74° |
| 2026-05-01 13:50 | 2.97958 | 101.73258 | 10120 ft | 287 kts | 74° |
| 2026-05-01 13:50 | 2.98533 | 101.75239 | 10494 ft | 307 kts | 74° |
| 2026-05-01 13:50 | 2.99154 | 101.77359 | 10808 ft | 327 kts | 74° |
| 2026-05-01 13:51 | 2.99807 | 101.79577 | 11333 ft | 336 kts | 74° |
| 2026-05-01 13:51 | 3.00476 | 101.81839 | 12011 ft | 341 kts | 74° |
| 2026-05-01 13:51 | 3.01151 | 101.84122 | 12712 ft | 345 kts | 74° |
| 2026-05-01 13:51 | 3.01835 | 101.86431 | 13441 ft | 348 kts | 74° |
| 2026-05-01 13:52 | 3.02515 | 101.88731 | 14075 ft | 351 kts | 74° |
| 2026-05-01 13:52 | 3.03213 | 101.91086 | 14687 ft | 354 kts | 74° |
| 2026-05-01 13:52 | 3.03914 | 101.93456 | 15295 ft | 357 kts | 74° |
| 2026-05-01 13:52 | 3.04624 | 101.95853 | 15876 ft | 361 kts | 74° |
| 2026-05-01 13:53 | 3.05338 | 101.98265 | 16496 ft | 363 kts | 74° |
| 2026-05-01 13:53 | 3.06782 | 102.03144 | 17698 ft | 368 kts | 74° |
| 2026-05-01 13:53 | 3.07511 | 102.05608 | 18236 ft | 372 kts | 74° |
| 2026-05-01 13:54 | 3.08248 | 102.08099 | 18705 ft | 375 kts | 74° |
| 2026-05-01 13:54 | 3.08992 | 102.10612 | 19175 ft | 378 kts | 74° |
| 2026-05-01 13:54 | 3.09740 | 102.13140 | 19657 ft | 380 kts | 74° |
| 2026-05-01 13:54 | 3.10494 | 102.15687 | 20124 ft | 383 kts | 74° |
| 2026-05-01 13:55 | 3.11252 | 102.18250 | 20610 ft | 386 kts | 74° |
| 2026-05-01 13:55 | 3.12015 | 102.20831 | 21058 ft | 388 kts | 74° |
| 2026-05-01 13:55 | 3.12784 | 102.23430 | 21519 ft | 391 kts | 74° |
| 2026-05-01 13:55 | 3.13557 | 102.26046 | 21977 ft | 394 kts | 74° |
| 2026-05-01 13:56 | 3.14337 | 102.28684 | 22404 ft | 397 kts | 74° |
| 2026-05-01 13:56 | 3.15123 | 102.31340 | 22863 ft | 399 kts | 74° |
| 2026-05-01 13:56 | 3.15911 | 102.34010 | 23312 ft | 401 kts | 75° |
| 2026-05-01 13:56 | 3.16579 | 102.36728 | 23695 ft | 404 kts | 78° |
| 2026-05-01 13:57 | 3.17190 | 102.39480 | 24033 ft | 407 kts | 78° |
| 2026-05-01 13:57 | 3.17599 | 102.41315 | 24264 ft | 409 kts | 78° |
| 2026-05-01 13:57 | 3.18214 | 102.44101 | 24603 ft | 412 kts | 78° |
| 2026-05-01 13:57 | 3.18830 | 102.46909 | 24956 ft | 414 kts | 78° |
| 2026-05-01 13:58 | 3.19657 | 102.50693 | 25426 ft | 417 kts | 78° |
| 2026-05-01 13:58 | 3.20275 | 102.53535 | 25769 ft | 420 kts | 78° |
| 2026-05-01 13:58 | 3.20686 | 102.55431 | 25989 ft | 421 kts | 78° |
| 2026-05-01 13:58 | 3.21307 | 102.58306 | 26324 ft | 424 kts | 78° |
| 2026-05-01 13:59 | 3.21855 | 102.61213 | 26663 ft | 426 kts | 81° |
| 2026-05-01 13:59 | 3.22244 | 102.64163 | 26995 ft | 429 kts | 83° |
| 2026-05-01 13:59 | 3.22510 | 102.67139 | 27325 ft | 431 kts | 86° |
| 2026-05-01 13:59 | 3.22737 | 102.70134 | 27666 ft | 433 kts | 83° |
| 2026-05-01 14:00 | 3.23217 | 102.73116 | 28001 ft | 435 kts | 77° |
| 2026-05-01 14:00 | 3.23993 | 102.76040 | 28347 ft | 436 kts | 72° |
| 2026-05-01 14:00 | 3.25073 | 102.78884 | 28708 ft | 438 kts | 66° |
| 2026-05-01 14:00 | 3.26287 | 102.81687 | 28978 ft | 441 kts | 73° |
| 2026-05-01 14:01 | 3.26775 | 102.84717 | 29189 ft | 446 kts | 89° |
| 2026-05-01 14:01 | 3.26502 | 102.87820 | 29460 ft | 448 kts | 93° |
| 2026-05-01 14:01 | 3.26691 | 102.90926 | 29729 ft | 450 kts | 77° |
| 2026-05-01 14:01 | 3.27501 | 102.93954 | 29999 ft | 451 kts | 75° |
| 2026-05-01 14:02 | 3.28298 | 102.96997 | 30234 ft | 453 kts | 75° |
| 2026-05-01 14:02 | 3.29045 | 103.00064 | 30480 ft | 455 kts | 76° |
| 2026-05-01 14:02 | 3.29740 | 103.03161 | 30724 ft | 457 kts | 77° |
| 2026-05-01 14:02 | 3.30381 | 103.06285 | 30967 ft | 459 kts | 78° |
| 2026-05-01 14:03 | 3.30962 | 103.09423 | 31202 ft | 460 kts | 79° |
| 2026-05-01 14:03 | 3.31484 | 103.12591 | 31454 ft | 462 kts | 81° |
| 2026-05-01 14:03 | 3.31937 | 103.15734 | 31696 ft | 463 kts | 82° |
| 2026-05-01 14:03 | 3.32336 | 103.18979 | 31947 ft | 464 kts | 83° |
| 2026-05-01 14:04 | 3.32662 | 103.22154 | 32189 ft | 465 kts | 83° |
| 2026-05-01 14:04 | 3.33214 | 103.25336 | 32501 ft | 464 kts | 76° |
| 2026-05-01 14:04 | 3.34124 | 103.28430 | 32818 ft | 463 kts | 73° |
| 2026-05-01 14:04 | 3.34900 | 103.31534 | 33100 ft | 453 kts | 77° |
| 2026-05-01 14:05 | 3.35483 | 103.34589 | 33361 ft | 444 kts | 80° |
| 2026-05-01 14:05 | 3.35951 | 103.37626 | 33546 ft | 440 kts | 81° |